sensor_id;sensor_type;location;lat;lon;timestamp;temperature;humidity
20777;DHT22;10548;47.504;8.248;2022-07-29T00:01:03;18.50;99.90
20777;DHT22;10548;47.504;8.248;2022-07-29T00:03:30;18.60;99.90
20777;DHT22;10548;47.504;8.248;2022-07-29T00:05:58;18.50;99.90
20777;DHT22;10548;47.504;8.248;2022-07-29T00:08:26;18.50;99.90
20777;DHT22;10548;47.504;8.248;2022-07-29T00:10:53;18.40;99.90
20777;DHT22;10548;47.504;8.248;2022-07-29T00:13:20;18.40;99.90
20777;DHT22;10548;47.504;8.248;2022-07-29T00:15:58;18.50;99.90
20777;DHT22;10548;47.504;8.248;2022-07-29T00:18:31;18.60;99.90
20777;DHT22;10548;47.504;8.248;2022-07-29T00:20:58;18.50;99.90
20777;DHT22;10548;47.504;8.248;2022-07-29T00:23:26;18.60;99.90
20777;DHT22;10548;47.504;8.248;2022-07-29T00:25:53;18.60;99.90
20777;DHT22;10548;47.504;8.248;2022-07-29T00:28:20;18.70;99.90
20777;DHT22;10548;47.504;8.248;2022-07-29T00:30:47;18.60;99.90
20777;DHT22;10548;47.504;8.248;2022-07-29T00:33:14;18.60;99.90
20777;DHT22;10548;47.504;8.248;2022-07-29T00:35:41;18.50;99.90
20777;DHT22;10548;47.504;8.248;2022-07-29T00:38:17;18.60;99.90
20777;DHT22;10548;47.504;8.248;2022-07-29T00:40:45;18.60;99.90
20777;DHT22;10548;47.504;8.248;2022-07-29T00:43:13;18.60;99.90
20777;DHT22;10548;47.504;8.248;2022-07-29T00:45:41;18.50;99.90
20777;DHT22;10548;47.504;8.248;2022-07-29T00:48:09;18.60;99.90
20777;DHT22;10548;47.504;8.248;2022-07-29T00:50:36;18.60;99.90
20777;DHT22;10548;47.504;8.248;2022-07-29T00:53:05;18.50;99.90
20777;DHT22;10548;47.504;8.248;2022-07-29T00:55:33;18.50;99.90
20777;DHT22;10548;47.504;8.248;2022-07-29T00:58:00;18.50;99.90
20777;DHT22;10548;47.504;8.248;2022-07-29T01:00:28;18.50;99.90
20777;DHT22;10548;47.504;8.248;2022-07-29T01:02:56;18.50;99.90
20777;DHT22;10548;47.504;8.248;2022-07-29T01:05:25;18.40;99.90
20777;DHT22;10548;47.504;8.248;2022-07-29T01:08:14;18.40;99.90
20777;DHT22;10548;47.504;8.248;2022-07-29T01:10:43;18.50;99.90
20777;DHT22;10548;47.504;8.248;2022-07-29T01:13:11;18.40;99.90
20777;DHT22;10548;47.504;8.248;2022-07-29T01:15:44;18.30;99.90
20777;DHT22;10548;47.504;8.248;2022-07-29T01:18:28;18.30;99.90
20777;DHT22;10548;47.504;8.248;2022-07-29T01:21:40;18.30;99.90
20777;DHT22;10548;47.504;8.248;2022-07-29T01:25:20;18.20;99.90
20777;DHT22;10548;47.504;8.248;2022-07-29T01:27:47;18.00;99.90
20777;DHT22;10548;47.504;8.248;2022-07-29T01:30:18;17.90;99.90
20777;DHT22;10548;47.504;8.248;2022-07-29T01:32:50;17.90;99.90
20777;DHT22;10548;47.504;8.248;2022-07-29T01:35:24;17.90;99.90
20777;DHT22;10548;47.504;8.248;2022-07-29T01:37:59;17.90;99.90
20777;DHT22;10548;47.504;8.248;2022-07-29T01:40:44;18.00;99.90
20777;DHT22;10548;47.504;8.248;2022-07-29T01:43:17;18.00;99.90
20777;DHT22;10548;47.504;8.248;2022-07-29T01:45:56;18.00;99.90
20777;DHT22;10548;47.504;8.248;2022-07-29T01:48:40;17.90;99.90
20777;DHT22;10548;47.504;8.248;2022-07-29T01:51:18;17.90;99.90
20777;DHT22;10548;47.504;8.248;2022-07-29T01:54:43;17.90;99.90
20777;DHT22;10548;47.504;8.248;2022-07-29T01:56:48;17.90;99.90
20777;DHT22;10548;47.504;8.248;2022-07-29T01:59:17;17.90;99.90
20777;DHT22;10548;47.504;8.248;2022-07-29T02:01:45;17.90;99.90
20777;DHT22;10548;47.504;8.248;2022-07-29T02:04:15;17.90;99.90
20777;DHT22;10548;47.504;8.248;2022-07-29T02:07:00;17.90;99.90
20777;DHT22;10548;47.504;8.248;2022-07-29T02:09:28;18.00;99.90
20777;DHT22;10548;47.504;8.248;2022-07-29T02:11:57;18.00;99.90
20777;DHT22;10548;47.504;8.248;2022-07-29T02:14:27;18.10;99.90
20777;DHT22;10548;47.504;8.248;2022-07-29T02:16:55;18.10;99.90
20777;DHT22;10548;47.504;8.248;2022-07-29T02:19:25;18.00;99.90
20777;DHT22;10548;47.504;8.248;2022-07-29T02:21:54;18.00;99.90
20777;DHT22;10548;47.504;8.248;2022-07-29T02:24:24;18.00;99.90
20777;DHT22;10548;47.504;8.248;2022-07-29T02:26:53;18.00;99.90
20777;DHT22;10548;47.504;8.248;2022-07-29T02:29:23;18.20;99.90
20777;DHT22;10548;47.504;8.248;2022-07-29T02:31:51;18.30;99.90
20777;DHT22;10548;47.504;8.248;2022-07-29T02:34:20;18.20;99.90
20777;DHT22;10548;47.504;8.248;2022-07-29T02:36:49;18.10;99.90
20777;DHT22;10548;47.504;8.248;2022-07-29T02:39:17;18.10;99.90
20777;DHT22;10548;47.504;8.248;2022-07-29T02:41:48;18.10;99.90
20777;DHT22;10548;47.504;8.248;2022-07-29T02:44:18;18.20;99.90
20777;DHT22;10548;47.504;8.248;2022-07-29T02:49:55;18.20;99.90
20777;DHT22;10548;47.504;8.248;2022-07-29T02:52:37;18.10;99.90
20777;DHT22;10548;47.504;8.248;2022-07-29T02:55:32;18.10;99.90
20777;DHT22;10548;47.504;8.248;2022-07-29T02:58:30;18.00;99.90
20777;DHT22;10548;47.504;8.248;2022-07-29T03:01:04;18.00;99.90
20777;DHT22;10548;47.504;8.248;2022-07-29T03:03:37;18.00;99.90
20777;DHT22;10548;47.504;8.248;2022-07-29T03:06:05;18.00;99.90
20777;DHT22;10548;47.504;8.248;2022-07-29T03:08:33;18.00;99.90
20777;DHT22;10548;47.504;8.248;2022-07-29T03:11:01;18.00;99.90
20777;DHT22;10548;47.504;8.248;2022-07-29T03:13:29;17.90;99.90
20777;DHT22;10548;47.504;8.248;2022-07-29T03:15:57;17.80;99.90
20777;DHT22;10548;47.504;8.248;2022-07-29T03:18:26;17.90;99.90
20777;DHT22;10548;47.504;8.248;2022-07-29T03:20:53;17.90;99.90
20777;DHT22;10548;47.504;8.248;2022-07-29T03:23:22;17.90;99.90
20777;DHT22;10548;47.504;8.248;2022-07-29T03:25:50;18.10;99.90
20777;DHT22;10548;47.504;8.248;2022-07-29T03:28:18;17.90;99.90
20777;DHT22;10548;47.504;8.248;2022-07-29T03:30:48;17.80;99.90
20777;DHT22;10548;47.504;8.248;2022-07-29T03:33:15;17.90;99.90
20777;DHT22;10548;47.504;8.248;2022-07-29T03:35:43;17.90;99.90
20777;DHT22;10548;47.504;8.248;2022-07-29T03:38:10;17.90;99.90
20777;DHT22;10548;47.504;8.248;2022-07-29T03:40:58;17.80;99.90
20777;DHT22;10548;47.504;8.248;2022-07-29T03:43:31;17.80;99.90
20777;DHT22;10548;47.504;8.248;2022-07-29T03:46:00;17.80;99.90
20777;DHT22;10548;47.504;8.248;2022-07-29T03:48:30;17.80;99.90
20777;DHT22;10548;47.504;8.248;2022-07-29T03:50:59;17.90;99.90
20777;DHT22;10548;47.504;8.248;2022-07-29T03:53:26;18.00;99.90
20777;DHT22;10548;47.504;8.248;2022-07-29T03:55:58;18.00;99.90
20777;DHT22;10548;47.504;8.248;2022-07-29T03:58:27;17.80;99.90
20777;DHT22;10548;47.504;8.248;2022-07-29T04:00:54;17.80;99.90
20777;DHT22;10548;47.504;8.248;2022-07-29T04:03:22;17.80;99.90
20777;DHT22;10548;47.504;8.248;2022-07-29T04:06:05;17.80;99.90
20777;DHT22;10548;47.504;8.248;2022-07-29T04:08:33;17.90;99.90
20777;DHT22;10548;47.504;8.248;2022-07-29T04:11:01;17.90;99.90
20777;DHT22;10548;47.504;8.248;2022-07-29T04:13:28;17.90;99.90
20777;DHT22;10548;47.504;8.248;2022-07-29T04:15:55;17.80;99.90
20777;DHT22;10548;47.504;8.248;2022-07-29T04:18:23;17.80;99.90
20777;DHT22;10548;47.504;8.248;2022-07-29T04:20:50;17.80;99.90
20777;DHT22;10548;47.504;8.248;2022-07-29T04:23:17;17.80;99.90
20777;DHT22;10548;47.504;8.248;2022-07-29T04:25:44;17.80;99.90
20777;DHT22;10548;47.504;8.248;2022-07-29T04:28:11;17.80;99.90
20777;DHT22;10548;47.504;8.248;2022-07-29T04:30:38;17.80;99.90
20777;DHT22;10548;47.504;8.248;2022-07-29T04:33:06;17.90;99.90
20777;DHT22;10548;47.504;8.248;2022-07-29T04:35:35;17.90;99.90
20777;DHT22;10548;47.504;8.248;2022-07-29T04:38:05;17.90;99.90
20777;DHT22;10548;47.504;8.248;2022-07-29T04:40:33;17.90;99.90
20777;DHT22;10548;47.504;8.248;2022-07-29T04:43:04;18.00;99.90
20777;DHT22;10548;47.504;8.248;2022-07-29T04:45:31;18.00;99.90
20777;DHT22;10548;47.504;8.248;2022-07-29T04:47:58;18.00;99.90
20777;DHT22;10548;47.504;8.248;2022-07-29T04:50:25;18.00;99.90
20777;DHT22;10548;47.504;8.248;2022-07-29T04:52:53;18.00;99.90
20777;DHT22;10548;47.504;8.248;2022-07-29T04:55:20;18.00;99.90
20777;DHT22;10548;47.504;8.248;2022-07-29T04:57:47;18.10;99.90
20777;DHT22;10548;47.504;8.248;2022-07-29T05:00:14;18.10;99.90
20777;DHT22;10548;47.504;8.248;2022-07-29T05:02:41;18.10;99.90
20777;DHT22;10548;47.504;8.248;2022-07-29T05:05:08;18.20;99.90
20777;DHT22;10548;47.504;8.248;2022-07-29T05:07:35;18.20;99.90
20777;DHT22;10548;47.504;8.248;2022-07-29T05:10:03;18.30;99.90
20777;DHT22;10548;47.504;8.248;2022-07-29T05:12:30;18.40;99.90
20777;DHT22;10548;47.504;8.248;2022-07-29T05:14:57;18.50;99.90
20777;DHT22;10548;47.504;8.248;2022-07-29T05:17:24;18.50;99.90
20777;DHT22;10548;47.504;8.248;2022-07-29T05:19:51;18.60;99.90
20777;DHT22;10548;47.504;8.248;2022-07-29T05:22:19;18.70;99.90
20777;DHT22;10548;47.504;8.248;2022-07-29T05:24:46;18.80;99.90
20777;DHT22;10548;47.504;8.248;2022-07-29T05:27:13;18.90;99.90
20777;DHT22;10548;47.504;8.248;2022-07-29T05:29:41;19.00;99.90
20777;DHT22;10548;47.504;8.248;2022-07-29T05:32:12;19.20;99.90
20777;DHT22;10548;47.504;8.248;2022-07-29T05:34:40;19.40;99.90
20777;DHT22;10548;47.504;8.248;2022-07-29T05:37:20;19.40;99.90
20777;DHT22;10548;47.504;8.248;2022-07-29T05:39:47;19.50;99.90
20777;DHT22;10548;47.504;8.248;2022-07-29T05:42:22;19.50;99.90
20777;DHT22;10548;47.504;8.248;2022-07-29T05:44:49;19.50;99.90
20777;DHT22;10548;47.504;8.248;2022-07-29T05:47:16;19.50;99.90
20777;DHT22;10548;47.504;8.248;2022-07-29T05:49:43;19.50;99.90
20777;DHT22;10548;47.504;8.248;2022-07-29T05:52:10;19.60;99.90
20777;DHT22;10548;47.504;8.248;2022-07-29T05:54:37;19.80;99.90
20777;DHT22;10548;47.504;8.248;2022-07-29T05:57:04;19.80;99.90
20777;DHT22;10548;47.504;8.248;2022-07-29T05:59:36;19.80;99.90
20777;DHT22;10548;47.504;8.248;2022-07-29T06:02:03;19.90;99.90
20777;DHT22;10548;47.504;8.248;2022-07-29T06:04:32;20.00;99.90
20777;DHT22;10548;47.504;8.248;2022-07-29T06:07:00;20.10;99.90
20777;DHT22;10548;47.504;8.248;2022-07-29T06:09:28;20.10;99.90
20777;DHT22;10548;47.504;8.248;2022-07-29T06:11:56;20.20;99.90
20777;DHT22;10548;47.504;8.248;2022-07-29T06:14:24;20.20;99.90
20777;DHT22;10548;47.504;8.248;2022-07-29T06:16:51;20.20;99.90
20777;DHT22;10548;47.504;8.248;2022-07-29T06:19:19;20.30;99.90
20777;DHT22;10548;47.504;8.248;2022-07-29T06:21:47;20.10;99.90
20777;DHT22;10548;47.504;8.248;2022-07-29T06:24:15;20.10;99.90
20777;DHT22;10548;47.504;8.248;2022-07-29T06:26:43;20.00;99.90
20777;DHT22;10548;47.504;8.248;2022-07-29T06:29:10;19.90;99.90
20777;DHT22;10548;47.504;8.248;2022-07-29T06:31:38;19.90;99.90
20777;DHT22;10548;47.504;8.248;2022-07-29T06:34:05;20.00;99.90
20777;DHT22;10548;47.504;8.248;2022-07-29T06:36:36;20.00;99.90
20777;DHT22;10548;47.504;8.248;2022-07-29T06:39:06;20.10;99.90
20777;DHT22;10548;47.504;8.248;2022-07-29T06:41:34;20.10;99.90
20777;DHT22;10548;47.504;8.248;2022-07-29T06:44:08;20.00;99.90
20777;DHT22;10548;47.504;8.248;2022-07-29T06:46:35;20.10;99.90
20777;DHT22;10548;47.504;8.248;2022-07-29T06:49:03;20.00;99.90
20777;DHT22;10548;47.504;8.248;2022-07-29T06:51:30;20.00;99.90
20777;DHT22;10548;47.504;8.248;2022-07-29T06:53:57;20.00;99.90
20777;DHT22;10548;47.504;8.248;2022-07-29T06:56:30;20.00;99.90
20777;DHT22;10548;47.504;8.248;2022-07-29T06:59:10;20.20;99.90
20777;DHT22;10548;47.504;8.248;2022-07-29T07:01:39;20.40;99.90
20777;DHT22;10548;47.504;8.248;2022-07-29T07:04:07;20.30;99.90
20777;DHT22;10548;47.504;8.248;2022-07-29T07:06:44;20.30;99.90
20777;DHT22;10548;47.504;8.248;2022-07-29T07:09:12;20.50;99.90
20777;DHT22;10548;47.504;8.248;2022-07-29T07:11:39;20.50;99.90
20777;DHT22;10548;47.504;8.248;2022-07-29T07:14:06;20.50;99.90
20777;DHT22;10548;47.504;8.248;2022-07-29T07:16:33;20.60;99.90
20777;DHT22;10548;47.504;8.248;2022-07-29T07:19:00;20.60;99.90
20777;DHT22;10548;47.504;8.248;2022-07-29T07:21:28;20.70;99.90
20777;DHT22;10548;47.504;8.248;2022-07-29T07:23:57;20.60;99.90
20777;DHT22;10548;47.504;8.248;2022-07-29T07:26:24;20.80;99.90
20777;DHT22;10548;47.504;8.248;2022-07-29T07:28:52;21.00;99.90
20777;DHT22;10548;47.504;8.248;2022-07-29T07:31:22;20.90;99.90
20777;DHT22;10548;47.504;8.248;2022-07-29T07:33:49;21.00;99.90
20777;DHT22;10548;47.504;8.248;2022-07-29T07:36:16;20.90;99.90
20777;DHT22;10548;47.504;8.248;2022-07-29T07:38:43;20.70;99.90
20777;DHT22;10548;47.504;8.248;2022-07-29T07:41:10;20.60;99.90
20777;DHT22;10548;47.504;8.248;2022-07-29T07:43:37;20.20;99.90
20777;DHT22;10548;47.504;8.248;2022-07-29T07:46:04;20.40;99.90
20777;DHT22;10548;47.504;8.248;2022-07-29T07:48:31;20.20;99.90
20777;DHT22;10548;47.504;8.248;2022-07-29T07:50:58;20.40;99.90
20777;DHT22;10548;47.504;8.248;2022-07-29T07:53:26;20.40;99.90
20777;DHT22;10548;47.504;8.248;2022-07-29T07:55:53;20.10;99.90
20777;DHT22;10548;47.504;8.248;2022-07-29T07:58:38;20.10;99.90
20777;DHT22;10548;47.504;8.248;2022-07-29T08:01:05;20.10;99.90
20777;DHT22;10548;47.504;8.248;2022-07-29T08:03:33;20.20;99.90
20777;DHT22;10548;47.504;8.248;2022-07-29T08:06:00;20.10;99.90
20777;DHT22;10548;47.504;8.248;2022-07-29T08:08:27;20.00;99.90
20777;DHT22;10548;47.504;8.248;2022-07-29T08:10:54;20.30;99.90
20777;DHT22;10548;47.504;8.248;2022-07-29T08:13:26;20.40;99.90
20777;DHT22;10548;47.504;8.248;2022-07-29T08:15:55;20.20;99.90
20777;DHT22;10548;47.504;8.248;2022-07-29T08:18:30;20.40;99.90
20777;DHT22;10548;47.504;8.248;2022-07-29T08:20:58;20.60;99.90
20777;DHT22;10548;47.504;8.248;2022-07-29T08:23:25;20.60;99.90
20777;DHT22;10548;47.504;8.248;2022-07-29T08:26:12;20.70;99.90
20777;DHT22;10548;47.504;8.248;2022-07-29T08:28:41;20.40;99.90
20777;DHT22;10548;47.504;8.248;2022-07-29T08:31:12;20.20;99.90
20777;DHT22;10548;47.504;8.248;2022-07-29T08:33:39;20.10;99.90
20777;DHT22;10548;47.504;8.248;2022-07-29T08:36:06;20.20;99.90
20777;DHT22;10548;47.504;8.248;2022-07-29T08:38:33;20.00;99.90
20777;DHT22;10548;47.504;8.248;2022-07-29T08:41:01;20.20;99.90
20777;DHT22;10548;47.504;8.248;2022-07-29T08:43:29;20.30;99.90
20777;DHT22;10548;47.504;8.248;2022-07-29T08:45:56;20.40;99.90
20777;DHT22;10548;47.504;8.248;2022-07-29T08:48:23;20.50;99.90
20777;DHT22;10548;47.504;8.248;2022-07-29T08:50:56;20.50;99.90
20777;DHT22;10548;47.504;8.248;2022-07-29T08:53:25;20.60;99.90
20777;DHT22;10548;47.504;8.248;2022-07-29T08:55:54;20.90;99.90
20777;DHT22;10548;47.504;8.248;2022-07-29T08:58:22;20.90;99.90
20777;DHT22;10548;47.504;8.248;2022-07-29T09:00:53;20.80;99.90
20777;DHT22;10548;47.504;8.248;2022-07-29T09:03:29;21.00;99.90
20777;DHT22;10548;47.504;8.248;2022-07-29T09:06:01;21.20;99.90
20777;DHT22;10548;47.504;8.248;2022-07-29T09:08:29;21.10;99.90
20777;DHT22;10548;47.504;8.248;2022-07-29T09:10:57;21.40;99.90
20777;DHT22;10548;47.504;8.248;2022-07-29T09:13:29;21.50;99.90
20777;DHT22;10548;47.504;8.248;2022-07-29T09:15:57;21.60;99.90
20777;DHT22;10548;47.504;8.248;2022-07-29T09:18:53;21.70;99.90
20777;DHT22;10548;47.504;8.248;2022-07-29T09:21:20;21.80;99.90
20777;DHT22;10548;47.504;8.248;2022-07-29T09:24:08;22.00;99.90
20777;DHT22;10548;47.504;8.248;2022-07-29T09:26:43;22.00;99.90
20777;DHT22;10548;47.504;8.248;2022-07-29T09:29:18;21.90;99.90
20777;DHT22;10548;47.504;8.248;2022-07-29T09:31:50;22.10;99.90
20777;DHT22;10548;47.504;8.248;2022-07-29T09:34:26;21.90;99.90
20777;DHT22;10548;47.504;8.248;2022-07-29T09:36:55;22.40;98.80
20777;DHT22;10548;47.504;8.248;2022-07-29T09:39:39;22.70;98.10
20777;DHT22;10548;47.504;8.248;2022-07-29T09:42:27;23.00;98.80
20777;DHT22;10548;47.504;8.248;2022-07-29T09:44:55;23.40;94.30
20777;DHT22;10548;47.504;8.248;2022-07-29T09:47:22;23.80;98.10
20777;DHT22;10548;47.504;8.248;2022-07-29T09:49:57;24.00;93.20
20777;DHT22;10548;47.504;8.248;2022-07-29T09:52:29;23.80;95.00
20777;DHT22;10548;47.504;8.248;2022-07-29T09:55:06;24.50;94.40
20777;DHT22;10548;47.504;8.248;2022-07-29T09:57:34;24.90;89.20
20777;DHT22;10548;47.504;8.248;2022-07-29T10:00:08;24.60;90.20
20777;DHT22;10548;47.504;8.248;2022-07-29T10:02:39;24.20;87.50
20777;DHT22;10548;47.504;8.248;2022-07-29T10:05:17;24.50;86.20
20777;DHT22;10548;47.504;8.248;2022-07-29T10:07:50;25.20;77.60
20777;DHT22;10548;47.504;8.248;2022-07-29T10:10:35;25.40;74.80
20777;DHT22;10548;47.504;8.248;2022-07-29T10:13:13;24.70;76.70
20777;DHT22;10548;47.504;8.248;2022-07-29T10:15:44;24.70;73.90
20777;DHT22;10548;47.504;8.248;2022-07-29T10:18:14;24.90;70.30
20777;DHT22;10548;47.504;8.248;2022-07-29T10:20:41;25.40;69.20
20777;DHT22;10548;47.504;8.248;2022-07-29T10:23:09;25.70;62.20
20777;DHT22;10548;47.504;8.248;2022-07-29T10:25:36;26.40;59.70
20777;DHT22;10548;47.504;8.248;2022-07-29T10:28:05;26.60;58.60
20777;DHT22;10548;47.504;8.248;2022-07-29T10:30:33;26.10;57.80
20777;DHT22;10548;47.504;8.248;2022-07-29T10:34:13;26.00;60.20
20777;DHT22;10548;47.504;8.248;2022-07-29T10:36:54;26.90;57.50
20777;DHT22;10548;47.504;8.248;2022-07-29T10:39:46;26.10;58.60
20777;DHT22;10548;47.504;8.248;2022-07-29T10:42:24;26.10;63.20
20777;DHT22;10548;47.504;8.248;2022-07-29T10:44:59;26.20;58.30
20777;DHT22;10548;47.504;8.248;2022-07-29T10:47:27;26.00;58.00
20777;DHT22;10548;47.504;8.248;2022-07-29T10:50:02;26.50;57.00
20777;DHT22;10548;47.504;8.248;2022-07-29T10:52:56;26.20;56.40
20777;DHT22;10548;47.504;8.248;2022-07-29T10:55:37;26.50;55.40
20777;DHT22;10548;47.504;8.248;2022-07-29T10:58:21;27.60;51.10
20777;DHT22;10548;47.504;8.248;2022-07-29T11:00:53;27.80;48.50
20777;DHT22;10548;47.504;8.248;2022-07-29T11:03:44;28.80;45.80
20777;DHT22;10548;47.504;8.248;2022-07-29T11:06:18;27.60;47.80
20777;DHT22;10548;47.504;8.248;2022-07-29T11:09:15;26.70;51.70
20777;DHT22;10548;47.504;8.248;2022-07-29T11:11:46;26.70;51.80
20777;DHT22;10548;47.504;8.248;2022-07-29T11:14:55;26.90;51.60
20777;DHT22;10548;47.504;8.248;2022-07-29T11:17:23;26.90;51.20
20777;DHT22;10548;47.504;8.248;2022-07-29T11:19:50;27.00;47.40
20777;DHT22;10548;47.504;8.248;2022-07-29T11:22:34;26.70;48.80
20777;DHT22;10548;47.504;8.248;2022-07-29T11:25:15;26.50;48.40
20777;DHT22;10548;47.504;8.248;2022-07-29T11:27:44;26.30;50.40
20777;DHT22;10548;47.504;8.248;2022-07-29T11:30:11;26.50;48.90
20777;DHT22;10548;47.504;8.248;2022-07-29T11:32:41;26.10;49.80
20777;DHT22;10548;47.504;8.248;2022-07-29T11:35:19;25.90;51.30
20777;DHT22;10548;47.504;8.248;2022-07-29T11:38:24;26.60;48.20
20777;DHT22;10548;47.504;8.248;2022-07-29T11:41:20;27.10;47.70
20777;DHT22;10548;47.504;8.248;2022-07-29T11:44:00;26.90;46.30
20777;DHT22;10548;47.504;8.248;2022-07-29T11:46:48;26.80;49.90
20777;DHT22;10548;47.504;8.248;2022-07-29T11:49:26;26.20;50.00
20777;DHT22;10548;47.504;8.248;2022-07-29T11:52:14;26.00;51.80
20777;DHT22;10548;47.504;8.248;2022-07-29T11:54:42;25.90;50.30
20777;DHT22;10548;47.504;8.248;2022-07-29T11:57:26;25.80;47.50
20777;DHT22;10548;47.504;8.248;2022-07-29T12:00:32;25.90;43.10
20777;DHT22;10548;47.504;8.248;2022-07-29T12:03:03;25.80;43.10
20777;DHT22;10548;47.504;8.248;2022-07-29T12:05:36;26.00;42.40
20777;DHT22;10548;47.504;8.248;2022-07-29T12:08:16;26.10;41.50
20777;DHT22;10548;47.504;8.248;2022-07-29T12:10:48;25.90;41.50
20777;DHT22;10548;47.504;8.248;2022-07-29T12:13:18;25.90;41.60
20777;DHT22;10548;47.504;8.248;2022-07-29T12:15:54;25.90;42.00
20777;DHT22;10548;47.504;8.248;2022-07-29T12:18:25;25.40;43.50
20777;DHT22;10548;47.504;8.248;2022-07-29T12:21:01;25.10;43.30
20777;DHT22;10548;47.504;8.248;2022-07-29T12:23:33;24.90;43.60
20777;DHT22;10548;47.504;8.248;2022-07-29T12:26:05;25.10;44.00
20777;DHT22;10548;47.504;8.248;2022-07-29T12:28:38;25.50;41.00
20777;DHT22;10548;47.504;8.248;2022-07-29T12:31:11;25.60;40.30
20777;DHT22;10548;47.504;8.248;2022-07-29T12:33:39;25.80;39.60
20777;DHT22;10548;47.504;8.248;2022-07-29T12:36:07;25.70;39.40
20777;DHT22;10548;47.504;8.248;2022-07-29T12:38:44;25.90;39.10
20777;DHT22;10548;47.504;8.248;2022-07-29T12:41:12;25.60;39.90
20777;DHT22;10548;47.504;8.248;2022-07-29T12:43:52;25.90;39.50
20777;DHT22;10548;47.504;8.248;2022-07-29T12:46:19;25.80;39.80
20777;DHT22;10548;47.504;8.248;2022-07-29T12:48:50;25.50;40.30
20777;DHT22;10548;47.504;8.248;2022-07-29T12:51:39;25.20;39.90
20777;DHT22;10548;47.504;8.248;2022-07-29T15:54:44;20.60;99.90
20777;DHT22;10548;47.504;8.248;2022-07-29T15:57:12;20.60;99.90
20777;DHT22;10548;47.504;8.248;2022-07-29T15:59:39;20.60;99.90
20777;DHT22;10548;47.504;8.248;2022-07-29T16:04:33;20.40;99.90
20777;DHT22;10548;47.504;8.248;2022-07-29T16:07:00;20.40;99.90
20777;DHT22;10548;47.504;8.248;2022-07-29T16:09:28;20.20;99.90
20777;DHT22;10548;47.504;8.248;2022-07-29T16:14:22;20.30;99.90
20777;DHT22;10548;47.504;8.248;2022-07-29T16:16:54;20.30;99.90
20777;DHT22;10548;47.504;8.248;2022-07-29T16:19:22;20.20;99.90
20777;DHT22;10548;47.504;8.248;2022-07-29T16:21:49;20.50;99.90
20777;DHT22;10548;47.504;8.248;2022-07-29T16:24:16;20.70;99.90
20777;DHT22;10548;47.504;8.248;2022-07-29T16:26:43;20.60;99.90
20777;DHT22;10548;47.504;8.248;2022-07-29T16:29:11;20.60;99.90
20777;DHT22;10548;47.504;8.248;2022-07-29T16:31:38;20.70;99.90
20777;DHT22;10548;47.504;8.248;2022-07-29T16:34:05;20.60;99.90
20777;DHT22;10548;47.504;8.248;2022-07-29T16:36:32;20.80;99.90
20777;DHT22;10548;47.504;8.248;2022-07-29T16:38:59;21.00;99.90
20777;DHT22;10548;47.504;8.248;2022-07-29T16:41:26;20.80;99.90
20777;DHT22;10548;47.504;8.248;2022-07-29T16:43:55;21.10;99.90
20777;DHT22;10548;47.504;8.248;2022-07-29T16:46:22;21.30;99.90
20777;DHT22;10548;47.504;8.248;2022-07-29T16:48:51;21.60;99.90
20777;DHT22;10548;47.504;8.248;2022-07-29T16:51:18;21.60;99.90
20777;DHT22;10548;47.504;8.248;2022-07-29T16:53:46;21.60;99.90
20777;DHT22;10548;47.504;8.248;2022-07-29T17:03:38;23.10;97.70
20777;DHT22;10548;47.504;8.248;2022-07-29T17:19:05;22.00;96.50
20777;DHT22;10548;47.504;8.248;2022-07-29T17:21:32;22.10;96.20
20777;DHT22;10548;47.504;8.248;2022-07-29T17:23:59;22.10;95.70
20777;DHT22;10548;47.504;8.248;2022-07-29T17:26:26;22.30;95.80
20777;DHT22;10548;47.504;8.248;2022-07-29T17:28:54;22.80;92.90
20777;DHT22;10548;47.504;8.248;2022-07-29T17:31:21;23.00;92.70
20777;DHT22;10548;47.504;8.248;2022-07-29T17:33:49;23.40;88.90
20777;DHT22;10548;47.504;8.248;2022-07-29T17:36:16;22.80;91.30
20777;DHT22;10548;47.504;8.248;2022-07-29T17:39:00;22.10;94.80
20777;DHT22;10548;47.504;8.248;2022-07-29T17:41:27;22.50;93.60
20777;DHT22;10548;47.504;8.248;2022-07-29T17:43:54;22.30;94.30
20777;DHT22;10548;47.504;8.248;2022-07-29T17:46:23;22.50;92.80
20777;DHT22;10548;47.504;8.248;2022-07-29T17:48:53;21.90;95.50
20777;DHT22;10548;47.504;8.248;2022-07-29T17:51:23;21.90;96.30
20777;DHT22;10548;47.504;8.248;2022-07-29T17:53:51;21.50;97.20
20777;DHT22;10548;47.504;8.248;2022-07-29T17:56:18;21.50;97.40
20777;DHT22;10548;47.504;8.248;2022-07-29T17:58:45;21.20;98.20
20777;DHT22;10548;47.504;8.248;2022-07-29T18:01:13;21.30;97.90
20777;DHT22;10548;47.504;8.248;2022-07-29T18:03:41;21.40;97.70
20777;DHT22;10548;47.504;8.248;2022-07-29T18:06:09;21.20;98.00
20777;DHT22;10548;47.504;8.248;2022-07-29T18:08:36;21.20;98.50
20777;DHT22;10548;47.504;8.248;2022-07-29T18:11:05;21.20;98.00
20777;DHT22;10548;47.504;8.248;2022-07-29T18:13:32;21.30;97.90
20777;DHT22;10548;47.504;8.248;2022-07-29T18:15:59;21.10;98.30
20777;DHT22;10548;47.504;8.248;2022-07-29T18:18:26;21.10;98.20
20777;DHT22;10548;47.504;8.248;2022-07-29T18:20:54;21.10;98.40
20777;DHT22;10548;47.504;8.248;2022-07-29T18:23:21;21.10;98.20
20777;DHT22;10548;47.504;8.248;2022-07-29T18:25:48;21.10;98.30
20777;DHT22;10548;47.504;8.248;2022-07-29T18:28:15;21.00;98.50
20777;DHT22;10548;47.504;8.248;2022-07-29T18:30:42;20.90;98.80
20777;DHT22;10548;47.504;8.248;2022-07-29T18:33:12;20.80;99.30
20777;DHT22;10548;47.504;8.248;2022-07-29T18:35:51;20.70;99.80
20777;DHT22;10548;47.504;8.248;2022-07-29T18:38:38;20.60;99.90
20777;DHT22;10548;47.504;8.248;2022-07-29T18:41:06;20.40;99.90
20777;DHT22;10548;47.504;8.248;2022-07-29T18:43:33;20.50;99.90
20777;DHT22;10548;47.504;8.248;2022-07-29T18:46:00;20.30;99.90
20777;DHT22;10548;47.504;8.248;2022-07-29T18:48:28;20.20;99.90
20777;DHT22;10548;47.504;8.248;2022-07-29T18:50:55;20.10;99.90
20777;DHT22;10548;47.504;8.248;2022-07-29T18:53:22;20.10;99.90
20777;DHT22;10548;47.504;8.248;2022-07-29T18:55:49;20.00;99.90
20777;DHT22;10548;47.504;8.248;2022-07-29T18:58:16;20.00;99.90
20777;DHT22;10548;47.504;8.248;2022-07-29T19:00:43;19.90;99.90
20777;DHT22;10548;47.504;8.248;2022-07-29T19:03:10;19.90;99.90
20777;DHT22;10548;47.504;8.248;2022-07-29T19:05:37;19.80;99.90
20777;DHT22;10548;47.504;8.248;2022-07-29T19:08:05;19.80;99.90
20777;DHT22;10548;47.504;8.248;2022-07-29T19:10:32;19.70;99.90
20777;DHT22;10548;47.504;8.248;2022-07-29T19:12:59;19.70;99.90
20777;DHT22;10548;47.504;8.248;2022-07-29T19:15:26;19.60;99.90
20777;DHT22;10548;47.504;8.248;2022-07-29T19:17:53;19.60;99.90
20777;DHT22;10548;47.504;8.248;2022-07-29T19:20:27;19.50;99.90
20777;DHT22;10548;47.504;8.248;2022-07-29T19:22:54;19.50;99.90
20777;DHT22;10548;47.504;8.248;2022-07-29T19:25:21;19.50;99.90